aviador You're here:

GEML Decoded Metar

MELILLA in SPAIN
Report Time2017-08-19 01:30:00
UTC Time2017-08-19 01:50:32
Flight Rules ifr IFR
Wind080° at 03 kt
W.Decomp.*RWY 15: 1.1 kt HW 2.8 kt LCW
W.Rank080° ranks 7
Current wind is below 080° avg. (6.0)
Visibility9999 m
Phenomena:N/A
Clouds:Broken 009 Hf
Expected CloudBase > 800 ft AGL from Temp-Dew spread
Ceiling900 ft
Temp25°C (ISA +10)
Dew Point23°C (89% RH)
QNH1015 hPa
Density Alt1,680 ft
Elevation180 ft
Report Wrong Elevation
Raw Report
GEML 190130Z AUTO 08003KT 9999 BKN009/// 25/23 Q1015=

Extra information for GEML:More info

Metar Taf Metar & Taf Last 4 Metars F.Rules Stats Wind Profile Meteogram Temp Stats Airport Information Weather charts Add Link Nearby VenuesMetar ALERT Operation Metar Decoded Social comments